Time;durP1;ratioP1;P1;durP2;ratioP2;P2;SDS_P1;SDS_P2;PMS_P1;PMS_P2;Temp;Humidity;BMP_temperature;BMP_pressure;BME280_temperature;BME280_humidity;BME280_pressure;Samples;Min_cycle;Max_cycle;Signal;HPM_P1;HPM_P2
2022/09/25 00:00:30;;;;;;;6.22;1.60;;;;;;;12.95;100.00;101459.06;5304166;28;20027;-77
2022/09/25 00:03:02;;;;;;;5.35;1.70;;;;;;;12.98;100.00;101462.28;5305187;28;20113;-77
2022/09/25 00:05:35;;;;;;;7.65;1.85;;;;;;;12.93;100.00;101463.63;5307492;28;20484;-77
2022/09/25 00:08:08;;;;;;;8.93;1.92;;;;;;;12.89;100.00;101461.25;5311421;28;20507;-77
2022/09/25 00:10:42;;;;;;;5.95;1.63;;;;;;;12.91;100.00;101469.84;5307913;28;20035;-77
2022/09/25 00:13:19;;;;;;;4.95;1.45;;;;;;;12.93;100.00;101471.53;5309357;28;20073;-77
2022/09/25 00:15:53;;;;;;;7.28;1.95;;;;;;;12.71;100.00;101475.13;5306293;28;20027;-77
2022/09/25 00:21:16;;;;;;;6.40;1.88;;;;;;;12.72;100.00;101479.41;5310794;28;20047;-77
2022/09/25 00:23:48;;;;;;;8.77;1.92;;;;;;;12.76;100.00;101484.28;5309100;28;20099;-77
2022/09/25 00:26:19;;;;;;;5.97;1.92;;;;;;;12.64;100.00;101478.25;5287730;28;20169;-77
2022/09/25 00:28:52;;;;;;;7.18;2.08;;;;;;;12.70;100.00;101473.47;5303123;28;20032;-77
2022/09/25 00:31:24;;;;;;;8.98;2.22;;;;;;;12.70;100.00;101476.09;5307867;28;20392;-77
2022/09/25 00:33:58;;;;;;;6.85;1.98;;;;;;;12.75;100.00;101468.66;5307379;28;20032;-77
2022/09/25 00:36:30;;;;;;;8.52;2.00;;;;;;;12.64;100.00;101485.31;5307370;28;20019;-77
2022/09/25 00:39:02;;;;;;;7.97;2.35;;;;;;;12.64;100.00;101483.50;5306769;28;20020;-77
2022/09/25 00:41:33;;;;;;;6.00;1.77;;;;;;;12.60;100.00;101476.00;5304016;28;20063;-77
2022/09/25 00:44:55;;;;;;;6.40;2.10;;;;;;;12.84;100.00;101473.97;5302338;28;20321;-77
2022/09/25 00:47:49;;;;;;;6.03;1.90;;;;;;;12.86;100.00;101461.50;5307452;28;20130;-77
2022/09/25 00:50:46;;;;;;;8.70;2.03;;;;;;;12.85;100.00;101465.13;5308836;28;20157;-77
2022/09/25 00:53:27;;;;;;;8.90;1.75;;;;;;;12.70;100.00;101468.22;5310534;28;20019;-77
2022/09/25 00:56:01;;;;;;;9.85;2.13;;;;;;;12.57;100.00;101474.47;5307874;28;20400;-77
2022/09/25 00:58:36;;;;;;;9.40;2.53;;;;;;;12.52;100.00;101484.53;5311319;28;20027;-77
2022/09/25 01:01:08;;;;;;;6.20;2.10;;;;;;;12.46;100.00;101474.53;5304340;28;20032;-77
2022/09/25 01:03:40;;;;;;;8.63;2.15;;;;;;;12.51;100.00;101474.16;5302953;28;20400;-77
2022/09/25 01:06:14;;;;;;;7.63;2.10;;;;;;;12.54;100.00;101479.13;5309177;28;20484;-77
2022/09/25 01:08:46;;;;;;;7.22;1.98;;;;;;;12.40;100.00;101475.88;5304153;28;20028;-77
2022/09/25 01:11:17;;;;;;;8.02;2.00;;;;;;;12.44;100.00;101475.63;5305319;28;20088;-77
2022/09/25 01:13:54;;;;;;;6.70;2.10;;;;;;;12.44;100.00;101471.19;5306715;28;20032;-77
2022/09/25 01:16:41;;;;;;;9.43;2.45;;;;;;;12.44;100.00;101476.47;5308959;28;20108;-77
2022/09/25 01:19:39;;;;;;;8.13;2.30;;;;;;;12.50;100.00;101475.97;5288812;28;20034;-77
2022/09/25 01:22:25;;;;;;;8.48;2.88;;;;;;;12.42;100.00;101478.38;5302855;28;20036;-77
2022/09/25 01:25:10;;;;;;;7.63;2.25;;;;;;;12.38;100.00;101480.41;5305500;28;20040;-77
2022/09/25 01:28:17;;;;;;;6.72;1.90;;;;;;;12.38;100.00;101479.56;5303206;28;20031;-77
2022/09/25 01:30:56;;;;;;;10.60;2.65;;;;;;;12.21;100.00;101488.03;5304449;28;20030;-77
2022/09/25 01:33:45;;;;;;;7.13;2.22;;;;;;;12.18;100.00;101466.28;5309457;28;20079;-77
2022/09/25 01:36:24;;;;;;;6.95;2.05;;;;;;;12.09;100.00;101477.56;5308601;28;20020;-77
2022/09/25 01:39:10;;;;;;;7.63;1.80;;;;;;;12.10;100.00;101489.72;5308822;28;20031;-77
2022/09/25 01:41:48;;;;;;;5.57;1.83;;;;;;;11.99;100.00;101496.81;5304371;28;20484;-77
2022/09/25 01:44:27;;;;;;;4.55;1.75;;;;;;;11.98;100.00;101487.25;5302895;28;20028;-77
2022/09/25 01:47:05;;;;;;;7.97;2.10;;;;;;;11.98;100.00;101495.13;5309487;28;20044;-77
2022/09/25 01:49:51;;;;;;;8.98;1.85;;;;;;;11.98;100.00;101490.72;5306032;28;20027;-77
2022/09/25 01:52:31;;;;;;;8.50;2.22;;;;;;;11.92;100.00;101499.91;5306672;28;20115;-77
2022/09/25 01:55:14;;;;;;;9.73;2.00;;;;;;;11.91;100.00;101506.13;5305070;28;20394;-77
2022/09/25 01:57:53;;;;;;;7.63;2.05;;;;;;;11.79;100.00;101501.81;5300157;28;20036;-77
2022/09/25 02:00:24;;;;;;;7.63;2.03;;;;;;;11.62;100.00;101508.38;5301135;28;20020;-77
2022/09/25 02:03:06;;;;;;;8.57;1.90;;;;;;;11.68;100.00;101504.47;5303508;28;20023;-77
2022/09/25 02:05:44;;;;;;;9.27;2.10;;;;;;;11.67;100.00;101498.38;5306743;28;20411;-77
2022/09/25 02:08:24;;;;;;;8.77;1.90;;;;;;;11.61;100.00;101496.22;5305828;28;20031;-77
2022/09/25 02:11:01;;;;;;;8.95;2.22;;;;;;;11.55;100.00;101493.25;5307754;28;20373;-77
2022/09/25 02:13:43;;;;;;;7.07;1.80;;;;;;;11.54;100.00;101497.66;5311214;28;20090;-77
2022/09/25 02:16:21;;;;;;;7.15;1.70;;;;;;;11.45;100.00;101496.59;5311073;28;20435;-77
2022/09/25 02:21:54;;;;;;;7.05;2.70;;;;;;;11.44;100.00;101489.69;5314871;28;20032;-77
2022/09/25 02:24:34;;;;;;;5.82;1.52;;;;;;;11.42;100.00;101490.75;5310215;28;20019;-77
2022/09/25 02:27:05;;;;;;;5.95;2.03;;;;;;;11.24;100.00;101490.38;5306015;28;20032;-77
2022/09/25 02:29:37;;;;;;;4.80;1.85;;;;;;;11.15;100.00;101473.59;5315647;28;20073;-77
2022/09/25 02:32:12;;;;;;;7.05;1.60;;;;;;;11.23;100.00;101493.97;5306965;28;20106;-76
2022/09/25 02:34:43;;;;;;;7.65;1.70;;;;;;;11.12;100.00;101496.59;5306413;28;20055;-77
2022/09/25 02:37:16;;;;;;;6.03;1.70;;;;;;;11.10;100.00;101498.47;5307634;28;20100;-77
2022/09/25 02:39:49;;;;;;;;;;;;;;;11.74;100.00;101498.72;5286689;28;20119;-77
2022/09/25 02:42:29;;;;;;;7.63;2.08;;;;;;;11.19;100.00;101500.41;5305330;28;20276;-77
2022/09/25 02:45:11;;;;;;;5.35;1.83;;;;;;;11.09;100.00;101499.44;5309787;28;20744;-77
2022/09/25 02:48:03;;;;;;;5.40;1.58;;;;;;;11.14;100.00;101495.53;5311671;28;20056;-75
2022/09/25 02:51:02;;;;;;;6.72;1.75;;;;;;;11.04;100.00;101494.56;5307672;28;20030;-75
2022/09/25 02:53:40;;;;;;;7.07;1.83;;;;;;;10.90;100.00;101494.75;5309026;28;20036;-75
2022/09/25 02:56:27;;;;;;;4.88;2.53;;;;;;;10.88;100.00;101491.44;5308422;28;20020;-75
2022/09/25 02:59:08;;;;;;;5.13;1.73;;;;;;;10.83;100.00;101477.81;5306634;28;20027;-75
2022/09/25 03:01:41;;;;;;;4.88;1.50;;;;;;;10.64;100.00;101473.13;5308153;28;20030;-75
2022/09/25 03:04:16;;;;;;;8.30;1.90;;;;;;;10.71;100.00;101472.56;5309183;28;20536;-75
2022/09/25 03:06:49;;;;;;;7.40;1.98;;;;;;;10.61;100.00;101476.00;5308980;28;20481;-75
2022/09/25 03:09:21;;;;;;;4.50;1.93;;;;;;;10.57;100.00;101485.00;5312754;28;20453;-75
2022/09/25 03:11:54;;;;;;;6.38;1.77;;;;;;;10.56;100.00;101476.31;5308691;28;20020;-75
2022/09/25 03:14:26;;;;;;;7.30;1.83;;;;;;;10.57;100.00;101479.78;5310546;28;20024;-75
2022/09/25 03:17:02;;;;;;;5.55;1.90;;;;;;;10.54;100.00;101480.84;5308315;28;20377;-75
2022/09/25 03:19:34;;;;;;;4.72;1.55;;;;;;;10.31;100.00;101460.78;5290618;28;20020;-75
2022/09/25 03:22:05;;;;;;;6.57;2.20;;;;;;;10.34;100.00;101484.97;5310261;28;20028;-75
2022/09/25 03:24:37;;;;;;;4.85;1.83;;;;;;;10.35;100.00;101491.88;5307380;28;20031;-75
2022/09/25 03:27:08;;;;;;;6.03;1.98;;;;;;;10.26;100.00;101482.03;5306240;28;20039;-75
2022/09/25 03:29:39;;;;;;;7.93;2.05;;;;;;;10.20;100.00;101482.47;5310663;28;20040;-75
2022/09/25 03:32:12;;;;;;;6.07;1.85;;;;;;;10.20;100.00;101492.97;5308655;28;20015;-75
2022/09/25 03:34:43;;;;;;;12.15;3.28;;;;;;;10.21;100.00;101497.25;5307951;28;20035;-75
2022/09/25 03:37:15;;;;;;;5.90;2.65;;;;;;;10.20;100.00;101493.78;5308396;28;20031;-75
2022/09/25 03:39:46;;;;;;;4.47;2.50;;;;;;;10.11;100.00;101499.66;5309091;28;20034;-75
2022/09/25 03:42:18;;;;;;;6.00;2.90;;;;;;;10.14;100.00;101488.16;5305589;28;20031;-75
2022/09/25 03:44:49;;;;;;;9.23;3.53;;;;;;;10.07;100.00;101477.28;5309758;28;20031;-75
2022/09/25 03:47:20;;;;;;;8.52;3.42;;;;;;;10.12;100.00;101480.41;5308859;28;20052;-75
2022/09/25 03:49:52;;;;;;;8.15;3.33;;;;;;;10.12;100.00;101482.22;5305491;28;20024;-75
2022/09/25 03:52:23;;;;;;;7.30;3.70;;;;;;;10.07;100.00;101481.69;5285041;28;20783;-75
2022/09/25 03:54:55;;;;;;;5.65;3.45;;;;;;;10.02;100.00;101489.03;5307451;28;20047;-75
2022/09/25 03:57:26;;;;;;;5.88;3.60;;;;;;;10.02;100.00;101487.25;5305947;28;20024;-75
2022/09/25 04:00:00;;;;;;;5.97;3.78;;;;;;;9.99;100.00;101490.94;5311908;28;20055;-75
2022/09/25 04:02:31;;;;;;;13.18;4.00;;;;;;;9.92;100.00;101489.69;5304446;28;20032;-75
2022/09/25 04:05:03;;;;;;;9.35;4.45;;;;;;;9.95;100.00;101492.09;5309725;28;20032;-75
2022/09/25 04:07:34;;;;;;;8.70;4.43;;;;;;;9.91;100.00;101487.19;5305429;28;20028;-75
2022/09/25 04:10:06;;;;;;;9.00;5.20;;;;;;;9.91;100.00;101487.19;5307116;28;20290;-75
2022/09/25 04:12:37;;;;;;;11.88;5.07;;;;;;;9.85;100.00;101487.63;5305951;28;20071;-75
2022/09/25 04:15:09;;;;;;;7.95;5.00;;;;;;;9.95;100.00;101489.47;5309167;28;20476;-75
2022/09/25 04:17:40;;;;;;;8.65;5.45;;;;;;;9.93;100.00;101480.09;5307396;28;20555;-75
2022/09/25 04:20:11;;;;;;;8.40;5.50;;;;;;;9.85;100.00;101485.00;5307396;28;20391;-75
2022/09/25 04:22:43;;;;;;;7.40;5.45;;;;;;;9.84;100.00;101485.97;5308673;28;20388;-75
2022/09/25 04:25:14;;;;;;;8.18;5.75;;;;;;;9.79;100.00;101482.84;5305809;28;20407;-75
2022/09/25 04:27:46;;;;;;;9.52;5.90;;;;;;;9.76;100.00;101483.88;5308253;28;20032;-75
2022/09/25 04:30:17;;;;;;;11.45;6.35;;;;;;;9.72;100.00;101474.59;5306147;28;20023;-75
2022/09/25 04:35:40;;;;;;;7.43;5.30;;;;;;;9.74;100.00;101480.56;5313212;28;20119;-75
2022/09/25 04:38:12;;;;;;;8.82;5.90;;;;;;;9.67;100.00;101480.16;5304629;28;20030;-75
2022/09/25 04:40:44;;;;;;;6.97;6.15;;;;;;;9.70;100.00;101493.03;5304206;28;20652;-75
2022/09/25 04:43:15;;;;;;;12.05;6.22;;;;;;;9.69;100.00;101490.50;5311240;28;20032;-75
2022/09/25 04:45:47;;;;;;;12.07;6.43;;;;;;;9.66;100.00;101488.09;5307600;28;20396;-75
2022/09/25 04:48:18;;;;;;;9.82;6.50;;;;;;;9.62;100.00;101478.78;5307254;28;20385;-75
2022/09/25 04:50:50;;;;;;;8.18;5.95;;;;;;;9.60;100.00;101478.06;5311940;28;20035;-75
2022/09/25 04:53:21;;;;;;;8.90;6.38;;;;;;;9.56;100.00;101480.06;5309500;28;20110;-75
2022/09/25 04:55:54;;;;;;;10.50;6.65;;;;;;;9.49;100.00;101471.81;5307092;28;20161;-75
2022/09/25 04:58:25;;;;;;;11.48;6.35;;;;;;;9.49;100.00;101474.44;5306864;28;20092;-75
2022/09/25 05:01:02;;;;;;;8.40;5.50;;;;;;;9.58;100.00;101474.72;5305767;28;20724;-75
2022/09/25 05:03:34;;;;;;;7.80;6.05;;;;;;;9.47;100.00;101468.50;5307397;28;20080;-75
2022/09/25 05:06:05;;;;;;;8.73;6.38;;;;;;;9.54;100.00;101473.28;5303743;28;20491;-75
2022/09/25 05:08:36;;;;;;;14.65;6.63;;;;;;;9.42;100.00;101467.94;5305088;28;20042;-75
2022/09/25 05:11:08;;;;;;;7.60;5.43;;;;;;;9.37;100.00;101482.31;5308859;28;20083;-75
2022/09/25 05:13:40;;;;;;;11.15;6.13;;;;;;;9.37;100.00;101472.69;5305429;28;20024;-75
2022/09/25 05:16:12;;;;;;;7.97;6.18;;;;;;;9.33;100.00;101475.63;5311339;28;20063;-75
2022/09/25 05:18:43;;;;;;;9.65;6.43;;;;;;;9.24;100.00;101472.72;5307303;28;20145;-75
2022/09/25 05:21:14;;;;;;;8.32;5.45;;;;;;;9.26;100.00;101467.34;5304327;28;20046;-75
2022/09/25 05:23:46;;;;;;;9.10;6.10;;;;;;;9.22;100.00;101465.91;5308427;28;20042;-74
2022/09/25 05:26:17;;;;;;;8.52;5.30;;;;;;;9.21;100.00;101464.22;5304899;28;20020;-75
2022/09/25 05:28:51;;;;;;;8.27;5.93;;;;;;;9.11;100.00;101458.78;5306004;28;20036;-75
2022/09/25 05:31:23;;;;;;;11.10;6.20;;;;;;;9.12;100.00;101468.28;5304869;28;20045;-75
2022/09/25 05:33:54;;;;;;;8.13;5.97;;;;;;;9.14;100.00;101465.59;5305118;28;20472;-74
2022/09/25 05:36:25;;;;;;;8.48;6.20;;;;;;;9.14;100.00;101457.75;5300083;28;20031;-74
2022/09/25 05:38:59;;;;;;;7.38;5.90;;;;;;;9.13;100.00;101459.53;5304887;28;20447;-74
2022/09/25 05:41:32;;;;;;;8.00;5.40;;;;;;;9.06;100.00;101462.69;5305034;28;20059;-75
2022/09/25 05:44:08;;;;;;;8.13;6.18;;;;;;;9.10;100.00;101466.75;5299015;28;20032;-74
2022/09/25 05:46:39;;;;;;;10.43;6.22;;;;;;;9.09;100.00;101468.53;5305982;28;20042;-75
2022/09/25 05:49:10;;;;;;;11.57;6.88;;;;;;;9.08;100.00;101472.06;5305675;28;20107;-74
2022/09/25 05:51:42;;;;;;;8.48;6.53;;;;;;;9.05;100.00;101474.88;5307000;28;20042;-75
2022/09/25 05:54:13;;;;;;;7.10;5.78;;;;;;;9.07;100.00;101474.78;5301401;28;20024;-75
2022/09/25 05:56:44;;;;;;;11.38;6.78;;;;;;;9.05;100.00;101476.66;5308547;28;20106;-75
2022/09/25 05:59:15;;;;;;;10.55;6.47;;;;;;;9.02;100.00;101478.56;5303468;28;20035;-75
2022/09/25 06:01:47;;;;;;;7.93;6.53;;;;;;;8.99;100.00;101480.53;5303672;28;20031;-75
2022/09/25 06:04:18;;;;;;;9.15;6.43;;;;;;;9.05;100.00;101485.34;5304609;28;20060;-75
2022/09/25 06:06:49;;;;;;;11.55;6.43;;;;;;;9.06;100.00;101488.81;5304401;28;20028;-75
2022/09/25 06:09:21;;;;;;;11.32;7.57;;;;;;;9.08;100.00;101489.53;5308996;28;20484;-75
2022/09/25 06:11:52;;;;;;;9.50;6.80;;;;;;;9.06;100.00;101486.19;5305233;28;20024;-75
2022/09/25 06:14:23;;;;;;;9.35;6.90;;;;;;;9.10;100.00;101487.66;5306351;28;20019;-75
2022/09/25 06:16:55;;;;;;;12.13;6.90;;;;;;;9.11;100.00;101489.31;5305557;28;20020;-75
2022/09/25 06:19:30;;;;;;;13.20;6.97;;;;;;;9.09;100.00;101478.13;5302447;28;20480;-75
2022/09/25 06:22:01;;;;;;;9.30;7.05;;;;;;;9.12;100.00;101483.97;5301969;28;20051;-75
2022/09/25 06:24:32;;;;;;;10.48;6.88;;;;;;;9.19;100.00;101482.63;5305392;28;20024;-75
2022/09/25 06:27:05;;;;;;;11.15;7.28;;;;;;;9.25;100.00;101489.22;5307465;28;20039;-74
2022/09/25 06:29:36;;;;;;;13.20;7.80;;;;;;;9.27;100.00;101477.69;5306310;28;20119;-75
2022/09/25 06:32:08;;;;;;;10.77;7.68;;;;;;;9.33;100.00;101480.84;5307234;28;20169;-74
2022/09/25 06:34:39;;;;;;;10.32;6.95;;;;;;;9.42;100.00;101488.03;5307883;28;20054;-74
2022/09/25 06:37:10;;;;;;;8.70;7.80;;;;;;;9.44;100.00;101479.16;5305051;28;20449;-75
2022/09/25 06:39:41;;;;;;;11.20;7.82;;;;;;;9.56;100.00;101480.06;5306011;28;20372;-75
2022/09/25 06:42:13;;;;;;;9.65;8.02;;;;;;;9.62;100.00;101476.19;5301590;28;20487;-75
2022/09/25 06:44:44;;;;;;;12.90;8.95;;;;;;;9.69;100.00;101480.03;5307879;28;20558;-75
2022/09/25 06:47:15;;;;;;;13.70;8.60;;;;;;;9.74;100.00;101477.94;5305855;28;20445;-75
2022/09/25 06:49:46;;;;;;;11.43;7.22;;;;;;;9.83;100.00;101494.75;5306738;28;20488;-75
2022/09/25 06:52:18;;;;;;;10.98;7.90;;;;;;;9.88;100.00;101488.25;5308509;28;20031;-75
2022/09/25 06:54:50;;;;;;;10.93;7.90;;;;;;;9.97;100.00;101498.06;5302991;28;20039;-75
2022/09/25 06:57:21;;;;;;;10.45;8.32;;;;;;;10.06;100.00;101499.19;5304160;28;20036;-75
2022/09/25 06:59:52;;;;;;;10.63;8.25;;;;;;;10.14;100.00;101496.00;5311003;28;20054;-75
2022/09/25 07:05:15;;;;;;;10.63;8.50;;;;;;;10.24;100.00;101497.03;5309002;28;20118;-75
2022/09/25 07:07:47;;;;;;;12.00;8.20;;;;;;;10.35;100.00;101498.88;5305414;28;20016;-75
2022/09/25 07:10:18;;;;;;;10.13;8.07;;;;;;;10.42;100.00;101487.84;5308881;28;20296;-74
2022/09/25 07:12:49;;;;;;;12.18;8.82;;;;;;;10.47;100.00;101496.19;5307158;28;20106;-75
2022/09/25 07:15:21;;;;;;;11.98;9.13;;;;;;;10.53;100.00;101491.44;5305737;28;20035;-75
2022/09/25 07:17:53;;;;;;;13.13;8.73;;;;;;;10.66;100.00;101500.06;5287670;28;20537;-75
2022/09/25 07:20:24;;;;;;;13.07;8.70;;;;;;;10.75;100.00;101504.59;5309063;28;20035;-75
2022/09/25 07:23:02;;;;;;;9.88;7.60;;;;;;;10.81;100.00;101500.72;5307410;28;20020;-75
2022/09/25 07:25:34;;;;;;;14.48;9.27;;;;;;;10.91;100.00;101506.91;5305311;28;20042;-75
2022/09/25 07:28:06;;;;;;;10.45;7.93;;;;;;;10.97;100.00;101509.06;5313552;28;20027;-75
2022/09/25 07:30:37;;;;;;;10.90;8.25;;;;;;;11.02;100.00;101504.31;5289032;28;20106;-75
2022/09/25 07:33:09;;;;;;;12.73;7.50;;;;;;;11.14;100.00;101511.25;5307607;28;20030;-75
2022/09/25 07:35:40;;;;;;;11.13;7.63;;;;;;;11.13;100.00;101496.44;5310506;28;20028;-75
2022/09/25 07:38:11;;;;;;;10.73;7.47;;;;;;;11.30;100.00;101513.53;5309375;28;20012;-75
2022/09/25 07:40:43;;;;;;;9.07;6.93;;;;;;;11.43;100.00;101516.88;5303256;28;20028;-75
2022/09/25 07:43:14;;;;;;;11.77;7.55;;;;;;;11.46;100.00;101510.56;5311740;28;20028;-75
2022/09/25 07:45:52;;;;;;;12.52;7.90;;;;;;;11.53;100.00;101496.00;5311942;28;20077;-76
2022/09/25 07:48:23;;;;;;;11.65;7.80;;;;;;;11.67;100.00;101513.31;5307516;28;20031;-74
2022/09/25 07:50:58;;;;;;;9.20;7.53;;;;;;;11.82;100.00;101512.09;5308754;28;20020;-75
2022/09/25 07:53:30;;;;;;;15.27;7.50;;;;;;;11.84;100.00;101512.81;5306141;28;20047;-74
2022/09/25 07:56:02;;;;;;;10.98;7.38;;;;;;;11.87;100.00;101503.88;5307042;28;20480;-74
2022/09/25 07:58:36;;;;;;;8.73;7.03;;;;;;;12.05;100.00;101501.56;5304037;28;20134;-74
2022/09/25 08:01:10;;;;;;;9.70;6.13;;;;;;;12.16;100.00;101498.91;5311538;28;20035;-75
2022/09/25 08:03:42;;;;;;;9.40;6.22;;;;;;;12.26;100.00;101494.56;5311031;28;20063;-74
2022/09/25 08:06:13;;;;;;;9.25;5.88;;;;;;;12.32;100.00;101483.56;5307348;28;20027;-74
2022/09/25 08:08:44;;;;;;;9.40;5.40;;;;;;;12.50;100.00;101501.38;5310934;28;20032;-74
2022/09/25 08:11:17;;;;;;;8.15;5.45;;;;;;;12.60;100.00;101504.94;5304613;28;20058;-75
2022/09/25 08:13:48;;;;;;;6.77;5.47;;;;;;;12.70;100.00;101499.75;5305852;28;20023;-75
2022/09/25 08:16:22;;;;;;;6.88;4.82;;;;;;;12.77;100.00;101490.41;5310882;28;20020;-75
2022/09/25 08:18:53;;;;;;;10.65;5.30;;;;;;;12.84;100.00;101494.16;5304956;28;20020;-75
2022/09/25 08:21:24;;;;;;;7.65;5.22;;;;;;;12.98;100.00;101496.47;5307975;28;20477;-75
2022/09/25 08:23:55;;;;;;;7.28;4.88;;;;;;;13.08;100.00;101491.25;5308683;28;20038;-75
2022/09/25 08:26:28;;;;;;;10.25;3.47;;;;;;;13.21;100.00;101491.03;5307281;28;20062;-75
2022/09/25 08:28:59;;;;;;;9.23;3.57;;;;;;;13.31;100.00;101492.78;5306046;28;20034;-75
2022/09/25 08:31:30;;;;;;;5.57;2.85;;;;;;;13.42;100.00;101493.66;5302366;28;20031;-75
2022/09/25 08:34:02;;;;;;;7.03;3.38;;;;;;;13.51;100.00;101498.13;5305650;28;20031;-75
2022/09/25 08:36:33;;;;;;;7.22;3.28;;;;;;;13.65;100.00;101494.31;5303224;28;20032;-75
2022/09/25 08:39:04;;;;;;;5.85;3.10;;;;;;;13.69;100.00;101493.06;5307012;28;20659;-75
2022/09/25 08:41:56;;;;;;;6.28;2.78;;;;;;;14.08;100.00;101496.59;5309877;28;20485;-75
2022/09/25 08:44:38;;;;;;;8.70;2.95;;;;;;;14.06;100.00;101498.56;5303077;28;20055;-75
2022/09/25 08:50:15;;;;;;;5.75;2.20;;;;;;;14.25;100.00;101497.75;5303527;28;20035;-76
2022/09/25 08:52:54;;;;;;;8.93;2.50;;;;;;;14.38;100.00;101502.72;5307004;28;20499;-76
2022/09/25 08:58:28;;;;;;;7.38;2.30;;;;;;;14.69;100.00;101495.50;5310409;28;20036;-76
2022/09/25 09:01:03;;;;;;;5.97;1.80;;;;;;;14.70;100.00;101495.41;5301630;28;20027;-76
2022/09/25 09:03:45;;;;;;;4.93;1.75;;;;;;;14.90;100.00;101500.63;5303647;28;20028;-76
2022/09/25 09:06:17;;;;;;;7.10;1.80;;;;;;;14.84;100.00;101494.09;5300999;28;20088;-76
2022/09/25 09:09:07;;;;;;;7.82;1.70;;;;;;;15.14;100.00;101494.88;5302698;28;20031;-76
2022/09/25 09:11:47;;;;;;;4.78;1.38;;;;;;;15.12;100.00;101495.03;5302094;28;20023;-76
2022/09/25 09:14:20;;;;;;;7.10;1.95;;;;;;;15.20;100.00;101492.50;5303664;28;20024;-76
2022/09/25 09:17:03;;;;;;;8.23;2.55;;;;;;;15.39;100.00;101490.75;5289670;28;20461;-76
2022/09/25 09:19:37;;;;;;;9.13;2.03;;;;;;;15.44;100.00;101489.31;5306631;28;20064;-76
2022/09/25 09:22:10;;;;;;;6.95;1.92;;;;;;;15.46;100.00;101491.84;5309558;28;20074;-76
2022/09/25 09:24:57;;;;;;;6.40;1.95;;;;;;;15.60;100.00;101482.56;5310680;28;20030;-76
2022/09/25 09:27:48;;;;;;;5.63;1.38;;;;;;;15.67;100.00;101486.31;5302074;28;20099;-76
2022/09/25 09:30:27;;;;;;;5.25;1.40;;;;;;;15.61;100.00;101481.59;5300730;28;20020;-77
2022/09/25 09:33:37;;;;;;;7.35;1.65;;;;;;;15.80;100.00;101486.81;5304212;28;20028;-76
2022/09/25 09:36:32;;;;;;;9.00;1.70;;;;;;;15.80;100.00;101487.66;5306958;28;20401;-77
2022/09/25 09:39:27;;;;;;;7.95;1.92;;;;;;;15.90;100.00;101484.09;5311696;28;20061;-77
2022/09/25 09:42:08;;;;;;;9.23;1.52;;;;;;;15.79;100.00;101493.88;5290722;28;20020;-76
2022/09/25 09:45:02;;;;;;;4.32;1.20;;;;;;;15.88;100.00;101486.06;5305800;28;20058;-77
2022/09/25 09:47:42;;;;;;;5.30;1.30;;;;;;;15.76;100.00;101486.28;5301461;28;20043;-77
2022/09/25 09:50:42;;;;;;;8.15;1.60;;;;;;;16.26;100.00;101479.66;5307676;28;20035;-77
2022/09/25 09:53:43;;;;;;;6.40;1.30;;;;;;;16.38;100.00;101480.28;5275181;28;20112;-76
2022/09/25 09:56:21;;;;;;;5.22;1.55;;;;;;;16.41;100.00;101479.97;5309339;28;20027;-77
2022/09/25 09:58:57;;;;;;;6.20;1.23;;;;;;;16.54;100.00;101475.09;5304022;28;20445;-76
2022/09/25 10:01:33;;;;;;;4.55;1.23;;;;;;;16.59;100.00;101477.28;5303039;28;20496;-76
2022/09/25 10:04:10;;;;;;;4.72;1.05;;;;;;;16.66;100.00;101463.28;5306183;28;20036;-76
2022/09/25 10:06:47;;;;;;;4.72;1.10;;;;;;;16.91;100.00;101466.97;5303570;28;20052;-76
2022/09/25 10:09:19;;;;;;;5.50;1.45;;;;;;;17.06;100.00;101469.03;5304643;28;20107;-76
2022/09/25 10:11:59;;;;;;;3.83;0.93;;;;;;;16.96;100.00;101463.84;5299270;28;20459;-77
2022/09/25 10:14:38;;;;;;;6.45;1.30;;;;;;;16.89;100.00;101474.22;5303116;28;20115;-76
2022/09/25 10:17:10;;;;;;;3.30;1.13;;;;;;;16.87;100.00;101459.50;5281446;28;20024;-76
2022/09/25 10:19:58;;;;;;;3.20;1.20;;;;;;;17.25;100.00;101460.84;5307344;28;20437;-75
2022/09/25 10:22:38;;;;;;;3.67;1.05;;;;;;;17.15;100.00;101463.59;5306716;28;20491;-76
2022/09/25 10:25:09;;;;;;;4.80;1.15;;;;;;;17.18;100.00;101459.81;5300606;28;20220;-75
2022/09/25 10:27:46;;;;;;;4.55;1.00;;;;;;;17.38;100.00;101460.41;5309879;28;20028;-75
2022/09/25 10:30:21;;;;;;;4.13;0.98;;;;;;;17.60;100.00;101451.88;5304605;28;20044;-75
2022/09/25 10:33:18;;;;;;;8.13;1.80;;;;;;;17.96;100.00;101455.13;5306425;28;20549;-73
2022/09/25 10:35:52;;;;;;;4.63;1.10;;;;;;;17.64;100.00;101452.38;5313159;28;20108;-73
2022/09/25 10:38:32;;;;;;;3.47;0.90;;;;;;;17.81;100.00;101448.81;5315574;28;20111;-73
2022/09/25 10:41:24;;;;;;;7.90;1.23;;;;;;;17.96;100.00;101449.00;5312922;28;20091;-73
2022/09/25 10:44:00;;;;;;;4.07;0.90;;;;;;;17.92;100.00;101458.28;5302637;28;20024;-73
2022/09/25 10:52:18;;;;;;;4.18;1.10;;;;;;;17.64;100.00;101455.03;5305971;28;20154;-74
2022/09/25 10:54:51;;;;;;;5.47;0.90;;;;;;;17.61;100.00;101458.81;5292126;28;20024;-74
2022/09/25 10:57:34;;;;;;;6.65;1.55;;;;;;;17.75;100.00;101452.09;5309991;28;20099;-74
2022/09/25 11:00:23;;;;;;;2.55;1.00;;;;;;;18.11;100.00;101449.19;5303969;28;20027;-74
2022/09/25 11:02:58;;;;;;;2.05;0.60;;;;;;;18.27;100.00;101446.53;5303066;28;20028;-75
2022/09/25 11:05:33;;;;;;;3.85;1.35;;;;;;;18.03;100.00;101452.63;5304854;28;20382;-76
2022/09/25 11:08:06;;;;;;;5.43;1.38;;;;;;;17.89;100.00;101451.47;5298953;28;20027;-75
2022/09/25 11:10:55;;;;;;;4.82;1.08;;;;;;;17.91;100.00;101448.66;5302837;28;20035;-76
2022/09/25 11:13:35;;;;;;;3.50;0.88;;;;;;;17.93;100.00;101436.06;5309299;28;20095;-76
2022/09/25 11:16:10;;;;;;;3.45;1.00;;;;;;;17.99;100.00;101452.16;5312094;28;20030;-74
2022/09/25 11:18:44;;;;;;;2.35;0.80;;;;;;;18.08;100.00;101449.53;5305093;28;20035;-74
2022/09/25 11:21:31;;;;;;;4.28;1.05;;;;;;;18.31;100.00;101452.34;5308925;28;20040;-75
2022/09/25 11:24:18;;;;;;;3.15;0.52;;;;;;;18.36;100.00;101448.19;5306705;28;20026;-75
2022/09/25 11:27:00;;;;;;;3.67;0.88;;;;;;;18.40;100.00;101443.38;5308308;28;20029;-75
2022/09/25 11:29:43;;;;;;;1.90;0.70;;;;;;;18.68;100.00;101447.34;5306534;28;20272;-75
2022/09/25 11:32:36;;;;;;;3.72;0.90;;;;;;;18.95;100.00;101434.69;5301522;28;20089;-75
2022/09/25 11:35:16;;;;;;;4.30;1.05;;;;;;;18.84;100.00;101432.41;5307863;28;20800;-76
2022/09/25 11:38:14;;;;;;;5.28;0.90;;;;;;;18.97;100.00;101430.03;5304684;28;20110;-75
2022/09/25 11:41:13;;;;;;;5.00;0.90;;;;;;;18.63;100.00;101438.22;5306956;28;20028;-75
2022/09/25 11:44:07;;;;;;;6.57;1.20;;;;;;;18.66;100.00;101435.22;5287039;28;20036;-75
2022/09/25 11:46:49;;;;;;;2.95;1.00;;;;;;;18.50;100.00;101435.25;5304839;28;20477;-75
2022/09/25 11:49:27;;;;;;;2.95;1.02;;;;;;;18.83;100.00;101422.78;5300954;28;20025;-74
2022/09/25 11:52:36;;;;;;;3.28;0.88;;;;;;;18.86;100.00;101422.44;5313246;28;20028;-75
2022/09/25 11:55:30;;;;;;;3.80;0.80;;;;;;;19.08;100.00;101412.91;5312939;28;20027;-75
2022/09/25 11:58:28;;;;;;;4.53;0.90;;;;;;;19.22;100.00;101416.69;5303415;28;20024;-75
2022/09/25 12:01:26;;;;;;;3.78;0.98;;;;;;;19.23;100.00;101423.63;5307996;28;20747;-74
2022/09/25 12:04:31;;;;;;;6.88;1.02;;;;;;;19.15;100.00;101413.88;5305959;28;20636;-75
2022/09/25 12:07:24;;;;;;;8.50;1.13;;;;;;;19.14;100.00;101414.88;5304181;28;20108;-75
2022/09/25 12:10:26;;;;;;;4.43;0.90;;;;;;;19.01;100.00;101404.78;5286222;28;20024;-75
2022/09/25 12:13:10;;;;;;;3.67;0.90;;;;;;;18.77;100.00;101403.06;5304249;28;20039;-75
2022/09/25 12:16:10;;;;;;;4.15;0.70;;;;;;;19.03;100.00;101405.47;5308966;28;20031;-75
2022/09/25 12:19:11;;;;;;;6.32;0.85;;;;;;;18.93;100.00;101403.00;5303934;28;20077;-74
2022/09/25 12:22:00;;;;;;;3.67;0.80;;;;;;;19.15;100.00;101403.25;5269213;28;20058;-75
2022/09/25 12:24:43;;;;;;;3.88;0.68;;;;;;;19.22;100.00;101406.06;5309595;28;20027;-74